createdAt,value
2018-02-08T00:01:20.754Z,97617.20
2018-02-08T00:03:48.303Z,97612.02
2018-02-08T00:06:15.779Z,97611.72
2018-02-08T00:08:43.273Z,97609.56
2018-02-08T00:11:10.779Z,97615.66
2018-02-08T00:13:38.295Z,97608.71
2018-02-08T00:16:05.800Z,97609.63
2018-02-08T00:18:33.361Z,97604.84
2018-02-08T00:21:00.938Z,97593.25
2018-02-08T00:23:28.535Z,97606.76
2018-02-08T00:25:56.072Z,97609.47
2018-02-08T00:28:23.562Z,97611.61
2018-02-08T00:30:51.103Z,97606.83
2018-02-08T00:33:18.716Z,97610.05
2018-02-08T00:35:46.326Z,97614.73
2018-02-08T00:38:13.823Z,97607.50
2018-02-08T00:40:41.478Z,97605.80
2018-02-08T00:43:09.112Z,97605.28
2018-02-08T00:45:36.833Z,97611.91
2018-02-08T00:48:04.478Z,97608.05
2018-02-08T00:50:31.954Z,97608.91
2018-02-08T00:52:59.466Z,97603.00
2018-02-08T00:55:26.978Z,97603.50
2018-02-08T00:57:54.507Z,97606.66
2018-02-08T01:00:22.773Z,97607.34
2018-02-08T01:02:50.249Z,97606.23
2018-02-08T01:05:17.754Z,97609.11
2018-02-08T01:07:45.232Z,97604.72
2018-02-08T01:10:12.741Z,97613.56
2018-02-08T01:12:40.237Z,97615.27
2018-02-08T01:15:07.731Z,97614.83
2018-02-08T01:17:35.316Z,97610.94
2018-02-08T01:20:02.958Z,97617.37
2018-02-08T01:22:30.555Z,97621.82
2018-02-08T01:24:58.103Z,97613.44
2018-02-08T01:27:25.590Z,97615.59
2018-02-08T01:29:53.095Z,97614.70
2018-02-08T01:32:20.612Z,97614.33
2018-02-08T01:34:48.859Z,97613.94
2018-02-08T01:37:16.345Z,97616.57
2018-02-08T01:39:43.854Z,97600.78
2018-02-08T01:42:11.345Z,97615.70
2018-02-08T01:44:38.830Z,97613.53
2018-02-08T01:47:06.357Z,97614.02
2018-02-08T01:49:45.724Z,97624.88
2018-02-08T01:52:13.245Z,97620.98
2018-02-08T01:54:40.761Z,97623.03
2018-02-08T01:57:08.255Z,97624.98
2018-02-08T01:59:35.787Z,97619.48
2018-02-08T02:02:03.297Z,97622.60
2018-02-08T02:04:31.383Z,97615.86
2018-02-08T02:06:58.895Z,97619.91
2018-02-08T02:09:26.659Z,97618.58
2018-02-08T02:11:54.150Z,97623.91
2018-02-08T02:14:21.702Z,97623.91
2018-02-08T02:16:49.207Z,97627.77
2018-02-08T02:19:16.721Z,97625.58
2018-02-08T02:21:44.238Z,97617.25
2018-02-08T02:24:11.730Z,97622.84
2018-02-08T02:26:39.239Z,97618.77
2018-02-08T02:29:06.746Z,97619.97
2018-02-08T02:31:34.245Z,97619.41
2018-02-08T02:34:01.731Z,97621.83
2018-02-08T02:36:29.232Z,97617.74
2018-02-08T02:38:56.760Z,97623.22
2018-02-08T02:41:24.265Z,97623.50
2018-02-08T02:43:51.800Z,97624.70
2018-02-08T02:46:19.296Z,97623.22
2018-02-08T02:48:46.787Z,97626.66
2018-02-08T02:51:14.276Z,97624.21
2018-02-08T02:53:41.797Z,97625.11
2018-02-08T02:56:09.761Z,97635.41
2018-02-08T02:58:37.307Z,97628.67
2018-02-08T03:01:04.895Z,97633.38
2018-02-08T03:03:32.489Z,97629.84
2018-02-08T03:06:00.032Z,97626.50
2018-02-08T03:08:27.525Z,97637.45
2018-02-08T03:10:55.032Z,97633.34
2018-02-08T03:13:22.513Z,97642.28
2018-02-08T03:15:50.066Z,97640.30
2018-02-08T03:18:17.539Z,97641.39
2018-02-08T03:20:45.012Z,97645.78
2018-02-08T03:23:12.529Z,97647.27
2018-02-08T03:25:40.018Z,97635.38
2018-02-08T03:28:07.528Z,97639.56
2018-02-08T03:33:38.855Z,97643.09
2018-02-08T03:36:06.357Z,97646.59
2018-02-08T03:38:33.857Z,97646.77
2018-02-08T03:41:01.370Z,97640.71
2018-02-08T03:43:28.857Z,97643.65
2018-02-08T03:45:56.431Z,97648.88
2018-02-08T03:48:24.005Z,97652.84
2018-02-08T03:50:51.536Z,97655.53
2018-02-08T03:53:19.022Z,97658.88
2018-02-08T03:55:46.524Z,97658.78
2018-02-08T03:58:14.045Z,97661.08
2018-02-08T04:00:41.530Z,97665.38
2018-02-08T04:03:09.048Z,97665.56
2018-02-08T04:05:36.533Z,97664.91
2018-02-08T04:08:04.052Z,97664.81
2018-02-08T04:10:31.597Z,97663.27
2018-02-08T04:12:59.089Z,97664.70
2018-02-08T04:15:26.705Z,97670.08
2018-02-08T04:17:54.328Z,97672.92
2018-02-08T04:20:21.908Z,97669.73
2018-02-08T04:22:49.448Z,97679.05
2018-02-08T04:25:16.969Z,97682.48
2018-02-08T04:27:44.475Z,97684.59
2018-02-08T04:30:12.044Z,97685.89
2018-02-08T04:32:39.541Z,97690.53
2018-02-08T04:35:07.063Z,97691.72
2018-02-08T04:37:34.555Z,97689.38
2018-02-08T04:40:13.908Z,97699.13
2018-02-08T04:42:53.818Z,97698.73
2018-02-08T04:45:33.066Z,97704.70
2018-02-08T04:48:08.720Z,97705.91
2018-02-08T04:50:36.229Z,97701.51
2018-02-08T04:53:03.747Z,97701.88
2018-02-08T04:55:31.295Z,97704.41
2018-02-08T04:57:58.796Z,97706.55
2018-02-08T05:00:26.335Z,97707.25
2018-02-08T05:02:56.351Z,97710.75
2018-02-08T05:05:23.936Z,97708.56
2018-02-08T05:07:51.417Z,97714.17
2018-02-08T05:10:18.898Z,97719.90
2018-02-08T05:12:47.220Z,97718.45
2018-02-08T05:15:14.864Z,97718.69
2018-02-08T05:17:42.410Z,97718.60
2018-02-08T05:20:09.990Z,97725.98
2018-02-08T05:22:37.560Z,97727.73
2018-02-08T05:25:05.053Z,97725.87
2018-02-08T05:27:32.552Z,97726.67
2018-02-08T05:30:00.150Z,97731.55
2018-02-08T05:32:27.640Z,97741.92
2018-02-08T05:34:55.173Z,97730.26
2018-02-08T05:37:23.336Z,97731.75
2018-02-08T05:39:50.855Z,97736.87
2018-02-08T05:42:18.425Z,97737.55
2018-02-08T05:44:45.990Z,97739.56
2018-02-08T05:47:13.539Z,97736.09
2018-02-08T05:49:41.136Z,97740.98
2018-02-08T05:52:08.713Z,97741.59
2018-02-08T05:54:36.310Z,97752.84
2018-02-08T05:57:03.876Z,97754.34
2018-02-08T05:59:31.460Z,97753.50
2018-02-08T06:01:58.951Z,97759.22
2018-02-08T06:04:26.471Z,97760.11
2018-02-08T06:06:54.012Z,97761.55
2018-02-08T06:09:21.527Z,97766.31
2018-02-08T06:11:49.014Z,97763.17
2018-02-08T06:14:16.563Z,97762.35
2018-02-08T06:16:44.568Z,97767.08
2018-02-08T06:19:12.153Z,97766.67
2018-02-08T06:21:39.747Z,97770.05
2018-02-08T06:24:07.371Z,97763.72
2018-02-08T06:26:34.948Z,97769.16
2018-02-08T06:29:02.586Z,97774.45
2018-02-08T06:31:30.139Z,97774.92
2018-02-08T06:33:57.703Z,97773.23
2018-02-08T06:36:25.216Z,97776.03
2018-02-08T06:38:52.689Z,97774.77
2018-02-08T06:41:20.203Z,97782.44
2018-02-08T06:43:47.704Z,97784.73
2018-02-08T06:46:15.237Z,97787.14
2018-02-08T06:48:42.744Z,97783.72
2018-02-08T06:51:10.224Z,97785.70
2018-02-08T06:53:37.784Z,97793.03
2018-02-08T06:56:05.263Z,97793.48
2018-02-08T06:58:32.791Z,97794.50
2018-02-08T07:01:00.360Z,97797.52
2018-02-08T07:03:27.853Z,97803.09
2018-02-08T07:05:55.527Z,97801.39
2018-02-08T07:08:23.023Z,97805.89
2018-02-08T07:10:50.564Z,97806.66
2018-02-08T07:13:18.094Z,97818.92
2018-02-08T07:15:45.726Z,97822.92
2018-02-08T07:18:13.304Z,97818.93
2018-02-08T07:20:41.000Z,97815.13
2018-02-08T07:23:08.558Z,97825.20
2018-02-08T07:25:36.157Z,97828.07
2018-02-08T07:28:03.664Z,97823.44
2018-02-08T07:30:31.154Z,97829.00
2018-02-08T07:32:58.671Z,97826.71
2018-02-08T07:35:26.167Z,97840.35
2018-02-08T07:37:53.703Z,97834.57
2018-02-08T07:40:21.185Z,97830.52
2018-02-08T07:42:48.718Z,97838.79
2018-02-08T07:45:16.248Z,97842.61
2018-02-08T07:47:43.753Z,97844.39
2018-02-08T07:50:11.259Z,97843.16
2018-02-08T07:52:38.799Z,97848.08
2018-02-08T07:55:06.353Z,97840.73
2018-02-08T07:57:34.014Z,97843.75
2018-02-08T08:00:01.604Z,97841.55
2018-02-08T08:02:29.096Z,97843.24
2018-02-08T08:04:56.616Z,97842.84
2018-02-08T08:07:24.106Z,97848.45
2018-02-08T08:09:51.612Z,97843.05
2018-02-08T08:12:19.135Z,97842.44
2018-02-08T08:14:46.626Z,97842.09
2018-02-08T08:17:14.162Z,97851.20
2018-02-08T08:19:41.687Z,97842.41
2018-02-08T08:22:09.217Z,97845.92
2018-02-08T08:24:36.727Z,97844.25
2018-02-08T08:27:04.236Z,97854.30
2018-02-08T08:29:31.744Z,97856.84
2018-02-08T08:31:59.233Z,97857.09
2018-02-08T08:34:26.815Z,97849.17
2018-02-08T08:36:54.344Z,97852.88
2018-02-08T08:39:21.996Z,97853.16
2018-02-08T08:41:49.506Z,97859.94
2018-02-08T08:44:17.062Z,97858.77
2018-02-08T08:46:44.588Z,97857.03
2018-02-08T08:49:12.075Z,97857.52
2018-02-08T08:51:39.590Z,97858.89
2018-02-08T08:54:07.148Z,97870.27
2018-02-08T08:56:34.677Z,97867.13
2018-02-08T08:59:02.205Z,97868.38
2018-02-08T09:01:29.710Z,97872.53
2018-02-08T09:03:57.199Z,97883.16
2018-02-08T09:06:24.676Z,97879.98
2018-02-08T09:08:52.197Z,97872.90
2018-02-08T09:11:19.703Z,97882.45
2018-02-08T09:13:47.257Z,97882.37
2018-02-08T09:16:14.774Z,97878.53
2018-02-08T09:18:42.292Z,97877.73
2018-02-08T09:21:09.783Z,97880.21
2018-02-08T09:23:37.464Z,97886.83
2018-02-08T09:26:05.070Z,97887.72
2018-02-08T09:28:32.678Z,97884.80
2018-02-08T09:31:00.276Z,97890.33
2018-02-08T09:33:27.805Z,97891.41
2018-02-08T09:35:55.441Z,97893.02
2018-02-08T09:38:22.939Z,97897.25
2018-02-08T09:40:50.536Z,97897.34
2018-02-08T09:43:18.026Z,97894.87
2018-02-08T09:45:45.534Z,97893.06
2018-02-08T09:48:13.041Z,97895.13
2018-02-08T09:50:40.567Z,97895.92
2018-02-08T09:53:08.081Z,97893.11
2018-02-08T09:55:35.567Z,97894.59
2018-02-08T09:58:03.079Z,97895.13
2018-02-08T10:00:30.572Z,97898.06
2018-02-08T10:02:58.122Z,97895.59
2018-02-08T10:05:25.703Z,97908.22
2018-02-08T10:07:53.316Z,97901.48
2018-02-08T10:10:20.826Z,97904.09
2018-02-08T10:12:48.306Z,97901.69
2018-02-08T10:15:16.232Z,97911.13
2018-02-08T10:17:43.718Z,97905.02
2018-02-08T10:20:11.214Z,97913.46
2018-02-08T10:22:38.735Z,97906.34
2018-02-08T10:25:06.302Z,97905.81
2018-02-08T10:27:33.844Z,97905.19
2018-02-08T10:30:01.482Z,97901.16
2018-02-08T10:32:29.500Z,97895.36
2018-02-08T10:34:56.996Z,97898.67
2018-02-08T10:37:24.527Z,97902.20
2018-02-08T10:39:52.055Z,97898.14
2018-02-08T10:42:19.572Z,97893.44
2018-02-08T10:44:47.085Z,97902.55
2018-02-08T10:47:14.651Z,97896.39
2018-02-08T10:49:42.147Z,97901.39
2018-02-08T10:52:09.704Z,97902.63
2018-02-08T10:54:37.220Z,97903.84
2018-02-08T10:57:04.730Z,97897.70
2018-02-08T10:59:32.251Z,97900.19
2018-02-08T11:01:59.769Z,97898.07
2018-02-08T11:04:27.297Z,97894.88
2018-02-08T11:06:54.785Z,97903.44
2018-02-08T11:09:22.308Z,97902.76
2018-02-08T11:11:49.908Z,97897.37
2018-02-08T11:14:17.430Z,97892.94
2018-02-08T11:16:44.942Z,97894.58
2018-02-08T11:19:12.471Z,97894.00
2018-02-08T11:21:39.982Z,97884.86
2018-02-08T11:24:07.531Z,97888.41
2018-02-08T11:26:35.131Z,97879.07
2018-02-08T11:29:02.641Z,97881.92
2018-02-08T11:31:30.241Z,97884.31
2018-02-08T11:33:57.746Z,97879.20
2018-02-08T11:36:25.252Z,97880.88
2018-02-08T11:38:52.804Z,97876.27
2018-02-08T11:41:20.309Z,97878.83
2018-02-08T11:43:47.827Z,97874.38
2018-02-08T11:46:15.369Z,97877.78
2018-02-08T11:48:42.885Z,97875.26
2018-02-08T11:51:10.384Z,97878.70
2018-02-08T11:53:37.908Z,97881.48
2018-02-08T11:56:05.396Z,97875.50
2018-02-08T11:58:32.914Z,97870.08
2018-02-08T12:01:00.428Z,97873.28
2018-02-08T12:03:27.944Z,97873.02
2018-02-08T12:05:55.528Z,97869.66
2018-02-08T12:08:23.030Z,97870.43
2018-02-08T12:10:50.554Z,97867.16
2018-02-08T12:13:18.080Z,97865.89
2018-02-08T12:15:45.612Z,97867.89
2018-02-08T12:18:13.637Z,97859.83
2018-02-08T12:20:41.176Z,97862.19
2018-02-08T12:23:08.777Z,97854.09
2018-02-08T12:25:36.349Z,97862.22
2018-02-08T12:28:03.960Z,97863.30
2018-02-08T12:30:31.489Z,97858.80
2018-02-08T12:32:59.099Z,97855.34
2018-02-08T12:35:26.641Z,97851.72
2018-02-08T12:37:54.179Z,97857.04
2018-02-08T12:40:21.712Z,97854.28
2018-02-08T12:42:49.224Z,97851.05
2018-02-08T12:45:16.787Z,97847.34
2018-02-08T12:47:44.313Z,97847.50
2018-02-08T12:50:11.892Z,97839.92
2018-02-08T12:52:39.974Z,97843.88
2018-02-08T12:55:07.531Z,97844.30
2018-02-08T12:57:35.100Z,97837.34
2018-02-08T13:00:02.602Z,97843.42
2018-02-08T13:02:30.180Z,97844.17
2018-02-08T13:04:57.707Z,97843.50
2018-02-08T13:07:25.398Z,97836.59
2018-02-08T13:09:52.905Z,97839.27
2018-02-08T13:12:20.519Z,97839.45
2018-02-08T13:14:48.004Z,97835.59
2018-02-08T13:17:15.538Z,97839.20
2018-02-08T13:19:43.021Z,97842.13
2018-02-08T13:22:10.551Z,97836.24
2018-02-08T13:24:38.069Z,97838.13
2018-02-08T13:27:05.585Z,97840.53
2018-02-08T13:29:33.132Z,97841.85
2018-02-08T13:32:01.131Z,97838.36
2018-02-08T13:34:28.676Z,97831.02
2018-02-08T13:36:56.266Z,97832.18
2018-02-08T13:42:25.663Z,97836.63
2018-02-08T13:44:53.166Z,97833.57
2018-02-08T13:47:26.244Z,97826.21
2018-02-08T13:49:59.208Z,97830.09
2018-02-08T13:52:33.229Z,97829.50
2018-02-08T13:55:01.512Z,97828.55
2018-02-08T13:57:33.636Z,97837.08
2018-02-08T14:00:17.023Z,97835.55
2018-02-08T14:02:44.614Z,97838.53
2018-02-08T14:05:12.156Z,97841.19
2018-02-08T14:07:39.663Z,97836.39
2018-02-08T14:10:07.153Z,97840.82
2018-02-08T14:12:34.735Z,97839.45
2018-02-08T14:15:02.222Z,97840.91
2018-02-08T14:17:29.755Z,97841.12
2018-02-08T14:19:57.377Z,97841.98
2018-02-08T14:22:24.898Z,97845.47
2018-02-08T14:24:52.976Z,97838.91
2018-02-08T14:27:20.517Z,97839.61
2018-02-08T14:29:48.075Z,97838.44
2018-02-08T14:32:16.431Z,97836.27
2018-02-08T14:34:43.960Z,97837.70
2018-02-08T14:37:11.454Z,97836.22
2018-02-08T14:39:39.618Z,97838.63
2018-02-08T14:42:07.139Z,97847.41
2018-02-08T14:44:34.688Z,97842.41
2018-02-08T14:47:02.263Z,97840.14
2018-02-08T14:49:29.855Z,97838.52
2018-02-08T14:51:57.379Z,97831.31
2018-02-08T14:54:24.908Z,97834.83
2018-02-08T14:56:52.424Z,97831.94
2018-02-08T14:59:19.922Z,97832.42
2018-02-08T15:01:47.429Z,97839.33
2018-02-08T15:04:14.961Z,97836.55
2018-02-08T15:06:42.456Z,97842.05
2018-02-08T15:09:10.003Z,97846.73
2018-02-08T15:11:37.499Z,97845.51
2018-02-08T15:14:09.009Z,97850.53
2018-02-08T15:16:36.598Z,97843.92
2018-02-08T15:19:04.107Z,97840.33
2018-02-08T15:21:31.637Z,97851.45
2018-02-08T15:23:59.134Z,97853.50
2018-02-08T15:26:26.756Z,97856.11
2018-02-08T15:28:54.275Z,97855.09
2018-02-08T15:31:21.906Z,97855.93
2018-02-08T15:33:49.417Z,97860.94
2018-02-08T15:36:16.960Z,97855.77
2018-02-08T15:38:44.485Z,97856.86
2018-02-08T15:41:11.994Z,97860.58
2018-02-08T15:43:39.595Z,97859.24
2018-02-08T15:46:07.172Z,97858.44
2018-02-08T15:48:34.866Z,97859.17
2018-02-08T15:51:02.423Z,97856.95
2018-02-08T15:53:29.955Z,97854.89
2018-02-08T15:55:57.486Z,97864.36
2018-02-08T15:58:25.067Z,97861.33
2018-02-08T16:00:52.592Z,97862.61
2018-02-08T16:03:20.092Z,97867.22
2018-02-08T16:05:47.610Z,97862.55
2018-02-08T16:08:15.116Z,97861.27
2018-02-08T16:10:42.647Z,97855.83
2018-02-08T16:13:10.184Z,97856.31
2018-02-08T16:15:37.645Z,97860.32
2018-02-08T16:18:05.173Z,97861.22
2018-02-08T16:20:32.724Z,97864.34
2018-02-08T16:23:00.302Z,97871.41
2018-02-08T16:25:27.891Z,97868.77
2018-02-08T16:27:55.463Z,97870.59
2018-02-08T16:30:23.001Z,97865.25
2018-02-08T16:32:50.492Z,97874.69
2018-02-08T16:35:18.090Z,97869.33
2018-02-08T16:37:45.612Z,97874.81
2018-02-08T16:40:13.254Z,97871.99
2018-02-08T16:42:40.833Z,97878.11
2018-02-08T16:45:08.426Z,97881.05
2018-02-08T16:47:36.036Z,97880.62
2018-02-08T16:50:03.577Z,97877.74
2018-02-08T16:52:31.075Z,97884.81
2018-02-08T16:54:58.587Z,97879.48
2018-02-08T16:57:26.121Z,97881.94
2018-02-08T16:59:53.693Z,97885.88
2018-02-08T17:02:21.238Z,97890.77
2018-02-08T17:04:48.756Z,97891.02
2018-02-08T17:07:19.957Z,97890.59
2018-02-08T17:09:47.453Z,97898.41
2018-02-08T17:12:15.116Z,97888.79
2018-02-08T17:14:42.684Z,97892.94
2018-02-08T17:17:10.345Z,97893.06
2018-02-08T17:19:37.885Z,97895.58
2018-02-08T17:22:05.472Z,97897.34
2018-02-08T17:24:36.358Z,97902.55
2018-02-08T17:27:04.034Z,97912.33
2018-02-08T17:29:31.746Z,97906.59
2018-02-08T17:31:59.368Z,97909.66
2018-02-08T17:34:26.882Z,97909.59
2018-02-08T17:36:54.669Z,97908.00
2018-02-08T17:39:22.233Z,97913.90
2018-02-08T17:41:49.820Z,97915.11
2018-02-08T17:44:17.465Z,97913.45
2018-02-08T17:46:45.155Z,97913.34
2018-02-08T17:49:12.760Z,97913.05
2018-02-08T17:51:40.300Z,97912.37
2018-02-08T17:54:07.831Z,97917.69
2018-02-08T17:56:35.339Z,97914.02
2018-02-08T17:59:02.869Z,97913.02
2018-02-08T18:01:30.393Z,97907.92
2018-02-08T18:03:57.958Z,97910.03
2018-02-08T18:06:25.493Z,97913.37
2018-02-08T18:08:53.065Z,97909.83
2018-02-08T18:11:20.619Z,97914.50
2018-02-08T18:13:48.200Z,97915.03
2018-02-08T18:16:16.709Z,97921.41
2018-02-08T18:18:44.295Z,97918.83
2018-02-08T18:21:11.822Z,97920.32
2018-02-08T18:23:39.325Z,97921.69
2018-02-08T18:26:06.912Z,97919.52
2018-02-08T18:28:34.442Z,97922.45
2018-02-08T18:31:02.063Z,97927.50
2018-02-08T18:33:29.592Z,97924.68
2018-02-08T18:35:57.193Z,97932.06
2018-02-08T18:38:24.773Z,97929.67
2018-02-08T18:40:52.328Z,97929.52
2018-02-08T18:43:19.868Z,97935.86
2018-02-08T18:45:47.400Z,97933.44
2018-02-08T18:48:15.016Z,97932.38
2018-02-08T18:50:42.553Z,97934.92
2018-02-08T18:53:10.116Z,97930.03
2018-02-08T18:55:37.784Z,97934.73
2018-02-08T18:58:05.302Z,97934.97
2018-02-08T19:00:32.884Z,97930.45
2018-02-08T19:03:00.557Z,97930.05
2018-02-08T19:05:28.098Z,97931.94
2018-02-08T19:07:55.664Z,97924.34
2018-02-08T19:10:23.216Z,97925.23
2018-02-08T19:12:50.772Z,97921.64
2018-02-08T19:15:18.302Z,97919.78
2018-02-08T19:17:45.818Z,97929.88
2018-02-08T19:20:13.405Z,97931.24
2018-02-08T19:22:40.965Z,97925.28
2018-02-08T19:25:08.516Z,97926.17
2018-02-08T19:27:36.070Z,97921.09
2018-02-08T19:30:03.669Z,97919.70
2018-02-08T19:32:31.243Z,97925.36
2018-02-08T19:34:59.276Z,97920.89
2018-02-08T19:37:26.808Z,97918.51
2018-02-08T19:39:54.418Z,97925.41
2018-02-08T19:42:21.983Z,97923.83
2018-02-08T19:44:49.543Z,97930.05
2018-02-08T19:47:17.200Z,97923.38
2018-02-08T19:49:45.061Z,97923.91
2018-02-08T19:52:12.586Z,97923.55
2018-02-08T19:54:40.093Z,97922.05
2018-02-08T19:57:08.568Z,97920.27
2018-02-08T19:59:36.054Z,97916.96
2018-02-08T20:02:03.611Z,97918.98
2018-02-08T20:04:31.256Z,97916.72
2018-02-08T20:06:58.761Z,97925.72
2018-02-08T20:09:26.254Z,97919.18
2018-02-08T20:11:53.755Z,97922.00
2018-02-08T20:14:26.884Z,97924.72
2018-02-08T20:16:54.420Z,97919.16
2018-02-08T20:19:21.977Z,97922.26
2018-02-08T20:21:49.498Z,97922.09
2018-02-08T20:24:17.041Z,97919.19
2018-02-08T20:26:44.566Z,97921.94
2018-02-08T20:29:12.123Z,97924.23
2018-02-08T20:31:39.645Z,97917.50
2018-02-08T20:34:07.156Z,97916.25
2018-02-08T20:36:34.710Z,97915.23
2018-02-08T20:39:02.239Z,97920.89
2018-02-08T20:41:29.749Z,97919.59
2018-02-08T20:43:57.292Z,97921.58
2018-02-08T20:46:24.845Z,97922.95
2018-02-08T20:48:52.648Z,97920.16
2018-02-08T20:51:20.145Z,97919.31
2018-02-08T20:53:47.670Z,97916.00
2018-02-08T20:56:15.709Z,97907.85
2018-02-08T20:58:43.307Z,97915.52
2018-02-08T21:01:10.913Z,97911.16
2018-02-08T21:03:39.286Z,97918.73
2018-02-08T21:06:06.896Z,97909.70
2018-02-08T21:08:34.429Z,97926.58
2018-02-08T21:11:02.090Z,97924.23
2018-02-08T21:13:29.711Z,97918.02
2018-02-08T21:15:57.316Z,97915.23
2018-02-08T21:18:25.274Z,97918.09
2018-02-08T21:20:52.814Z,97917.69
2018-02-08T21:23:20.324Z,97922.05
2018-02-08T21:25:48.028Z,97922.20
2018-02-08T21:28:15.530Z,97921.84
2018-02-08T21:30:43.130Z,97919.72
2018-02-08T21:33:10.702Z,97921.03
2018-02-08T21:35:38.245Z,97915.67
2018-02-08T21:38:05.774Z,97916.15
2018-02-08T21:40:33.268Z,97916.07
2018-02-08T21:43:00.876Z,97906.35
2018-02-08T21:45:28.770Z,97905.27
2018-02-08T21:47:56.282Z,97899.85
2018-02-08T21:50:24.217Z,97900.75
2018-02-08T21:52:52.464Z,97897.16
2018-02-08T21:55:19.962Z,97898.08
2018-02-08T21:57:47.482Z,97890.09
2018-02-08T22:00:14.987Z,97890.74
2018-02-08T22:02:42.527Z,97887.42
2018-02-08T22:05:10.026Z,97884.64
2018-02-08T22:07:37.705Z,97884.63
2018-02-08T22:10:05.287Z,97886.66
2018-02-08T22:12:32.920Z,97883.95
2018-02-08T22:15:00.460Z,97883.59
2018-02-08T22:17:28.016Z,97884.77
2018-02-08T22:19:55.544Z,97884.24
2018-02-08T22:22:23.046Z,97886.05
2018-02-08T22:24:51.331Z,97880.77
2018-02-08T22:27:18.843Z,97882.47
2018-02-08T22:29:46.398Z,97877.79
2018-02-08T22:32:13.956Z,97884.91
2018-02-08T22:34:41.783Z,97888.14
2018-02-08T22:37:09.352Z,97886.61
2018-02-08T22:39:36.909Z,97890.53
2018-02-08T22:42:04.440Z,97889.25
2018-02-08T22:44:31.940Z,97887.47
2018-02-08T22:46:59.455Z,97886.42
2018-02-08T22:49:26.964Z,97882.59
2018-02-08T22:51:54.832Z,97890.53
2018-02-08T22:54:22.337Z,97880.17
2018-02-08T22:56:49.865Z,97879.95
2018-02-08T22:59:17.354Z,97876.89
2018-02-08T23:01:44.888Z,97870.96
2018-02-08T23:04:12.458Z,97881.48
2018-02-08T23:06:39.986Z,97877.22
2018-02-08T23:09:07.502Z,97876.41
2018-02-08T23:11:34.996Z,97869.75
2018-02-08T23:14:02.508Z,97869.06
2018-02-08T23:16:30.119Z,97864.29
2018-02-08T23:18:57.840Z,97865.78
2018-02-08T23:21:25.349Z,97867.68
2018-02-08T23:23:53.031Z,97872.96
2018-02-08T23:26:20.672Z,97869.09
2018-02-08T23:28:48.248Z,97875.66
2018-02-08T23:31:15.849Z,97871.55
2018-02-08T23:33:43.346Z,97873.86
2018-02-08T23:36:10.855Z,97870.59
2018-02-08T23:38:38.356Z,97867.30
2018-02-08T23:41:05.925Z,97872.38
2018-02-08T23:43:34.250Z,97869.28
2018-02-08T23:46:02.156Z,97866.70
2018-02-08T23:48:29.672Z,97864.27
2018-02-08T23:50:57.162Z,97860.64
2018-02-08T23:53:24.666Z,97861.45
2018-02-08T23:55:52.151Z,97864.03
2018-02-08T23:58:19.681Z,97862.78
